sensor_id;sensor_type;location;lat;lon;timestamp;P1;durP1;ratioP1;P2;durP2;ratioP2
10052;SDS011;52418;53.134;8.236;2022-07-05T00:01:21;1.10;;;1.10;;
10052;SDS011;52418;53.134;8.236;2022-07-05T00:03:47;1.00;;;1.00;;
10052;SDS011;52418;53.134;8.236;2022-07-05T00:06:12;1.10;;;1.10;;
10052;SDS011;52418;53.134;8.236;2022-07-05T00:08:37;1.10;;;1.10;;
10052;SDS011;52418;53.134;8.236;2022-07-05T00:11:03;1.03;;;1.03;;
10052;SDS011;52418;53.134;8.236;2022-07-05T00:13:28;1.10;;;1.10;;
10052;SDS011;52418;53.134;8.236;2022-07-05T00:15:53;1.00;;;1.00;;
10052;SDS011;52418;53.134;8.236;2022-07-05T00:18:18;1.00;;;1.00;;
10052;SDS011;52418;53.134;8.236;2022-07-05T00:20:43;1.10;;;1.10;;
10052;SDS011;52418;53.134;8.236;2022-07-05T00:23:08;1.10;;;1.10;;
10052;SDS011;52418;53.134;8.236;2022-07-05T00:25:34;1.00;;;1.00;;
10052;SDS011;52418;53.134;8.236;2022-07-05T00:27:59;1.00;;;1.00;;
10052;SDS011;52418;53.134;8.236;2022-07-05T00:30:24;1.00;;;1.00;;
10052;SDS011;52418;53.134;8.236;2022-07-05T00:32:49;1.10;;;1.10;;
10052;SDS011;52418;53.134;8.236;2022-07-05T00:35:14;1.10;;;1.10;;
10052;SDS011;52418;53.134;8.236;2022-07-05T00:37:40;1.00;;;1.00;;
10052;SDS011;52418;53.134;8.236;2022-07-05T00:40:05;1.10;;;1.10;;
10052;SDS011;52418;53.134;8.236;2022-07-05T00:42:33;1.00;;;1.00;;
10052;SDS011;52418;53.134;8.236;2022-07-05T00:44:59;1.10;;;1.10;;
10052;SDS011;52418;53.134;8.236;2022-07-05T00:47:24;1.00;;;1.00;;
10052;SDS011;52418;53.134;8.236;2022-07-05T00:49:49;1.10;;;1.10;;
10052;SDS011;52418;53.134;8.236;2022-07-05T00:52:15;1.00;;;1.00;;
10052;SDS011;52418;53.134;8.236;2022-07-05T00:54:42;1.00;;;1.00;;
10052;SDS011;52418;53.134;8.236;2022-07-05T00:57:07;1.10;;;1.10;;
10052;SDS011;52418;53.134;8.236;2022-07-05T00:59:33;1.10;;;1.10;;
10052;SDS011;52418;53.134;8.236;2022-07-05T01:01:58;1.00;;;1.00;;
10052;SDS011;52418;53.134;8.236;2022-07-05T01:04:24;1.03;;;1.03;;
10052;SDS011;52418;53.134;8.236;2022-07-05T01:06:49;1.00;;;1.00;;
10052;SDS011;52418;53.134;8.236;2022-07-05T01:09:15;1.00;;;1.00;;
10052;SDS011;52418;53.134;8.236;2022-07-05T01:11:45;1.07;;;1.07;;
10052;SDS011;52418;53.134;8.236;2022-07-05T01:14:15;1.03;;;1.03;;
10052;SDS011;52418;53.134;8.236;2022-07-05T01:16:41;1.10;;;1.10;;
10052;SDS011;52418;53.134;8.236;2022-07-05T01:19:06;1.07;;;1.07;;
10052;SDS011;52418;53.134;8.236;2022-07-05T01:21:32;1.10;;;1.10;;
10052;SDS011;52418;53.134;8.236;2022-07-05T01:23:58;1.10;;;1.10;;
10052;SDS011;52418;53.134;8.236;2022-07-05T01:26:23;1.00;;;1.00;;
10052;SDS011;52418;53.134;8.236;2022-07-05T01:28:49;1.00;;;1.00;;
10052;SDS011;52418;53.134;8.236;2022-07-05T01:31:14;1.00;;;1.00;;
10052;SDS011;52418;53.134;8.236;2022-07-05T01:33:39;1.00;;;1.00;;
10052;SDS011;52418;53.134;8.236;2022-07-05T01:36:04;1.10;;;1.10;;
10052;SDS011;52418;53.134;8.236;2022-07-05T01:38:30;1.13;;;1.13;;
10052;SDS011;52418;53.134;8.236;2022-07-05T01:40:55;1.10;;;1.10;;
10052;SDS011;52418;53.134;8.236;2022-07-05T01:46:11;1.00;;;1.00;;
10052;SDS011;52418;53.134;8.236;2022-07-05T01:48:37;0.90;;;0.90;;
10052;SDS011;52418;53.134;8.236;2022-07-05T01:51:04;0.90;;;0.90;;
10052;SDS011;52418;53.134;8.236;2022-07-05T01:53:31;0.97;;;0.97;;
10052;SDS011;52418;53.134;8.236;2022-07-05T01:55:56;1.00;;;1.00;;
10052;SDS011;52418;53.134;8.236;2022-07-05T01:58:22;0.97;;;0.97;;
10052;SDS011;52418;53.134;8.236;2022-07-05T02:00:48;1.00;;;1.00;;
10052;SDS011;52418;53.134;8.236;2022-07-05T02:03:15;1.10;;;1.10;;
10052;SDS011;52418;53.134;8.236;2022-07-05T02:08:35;1.00;;;1.00;;
10052;SDS011;52418;53.134;8.236;2022-07-05T02:11:00;0.90;;;0.90;;
10052;SDS011;52418;53.134;8.236;2022-07-05T02:13:25;1.03;;;1.03;;
10052;SDS011;52418;53.134;8.236;2022-07-05T02:15:51;1.10;;;1.10;;
10052;SDS011;52418;53.134;8.236;2022-07-05T02:18:16;1.00;;;1.00;;
10052;SDS011;52418;53.134;8.236;2022-07-05T02:20:41;0.90;;;0.90;;
10052;SDS011;52418;53.134;8.236;2022-07-05T02:23:06;1.00;;;1.00;;
10052;SDS011;52418;53.134;8.236;2022-07-05T02:25:32;1.00;;;1.00;;
10052;SDS011;52418;53.134;8.236;2022-07-05T02:27:57;1.00;;;1.00;;
10052;SDS011;52418;53.134;8.236;2022-07-05T02:30:22;1.00;;;1.00;;
10052;SDS011;52418;53.134;8.236;2022-07-05T02:32:48;1.10;;;1.10;;
10052;SDS011;52418;53.134;8.236;2022-07-05T02:35:13;0.90;;;0.90;;
10052;SDS011;52418;53.134;8.236;2022-07-05T02:37:39;0.90;;;0.90;;
10052;SDS011;52418;53.134;8.236;2022-07-05T02:40:10;0.93;;;0.93;;
10052;SDS011;52418;53.134;8.236;2022-07-05T02:42:37;1.00;;;1.00;;
10052;SDS011;52418;53.134;8.236;2022-07-05T02:45:02;1.03;;;1.03;;
10052;SDS011;52418;53.134;8.236;2022-07-05T02:47:31;1.10;;;1.10;;
10052;SDS011;52418;53.134;8.236;2022-07-05T02:50:06;1.10;;;1.10;;
10052;SDS011;52418;53.134;8.236;2022-07-05T02:52:32;0.93;;;0.93;;
10052;SDS011;52418;53.134;8.236;2022-07-05T02:54:57;1.10;;;1.10;;
10052;SDS011;52418;53.134;8.236;2022-07-05T02:57:30;1.10;;;1.10;;
10052;SDS011;52418;53.134;8.236;2022-07-05T02:59:55;1.00;;;1.00;;
10052;SDS011;52418;53.134;8.236;2022-07-05T03:02:21;1.00;;;1.00;;
10052;SDS011;52418;53.134;8.236;2022-07-05T03:04:46;1.00;;;1.00;;
10052;SDS011;52418;53.134;8.236;2022-07-05T03:07:12;1.10;;;1.10;;
10052;SDS011;52418;53.134;8.236;2022-07-05T03:09:37;1.00;;;1.00;;
10052;SDS011;52418;53.134;8.236;2022-07-05T03:12:02;1.10;;;1.10;;
10052;SDS011;52418;53.134;8.236;2022-07-05T03:14:27;1.00;;;1.00;;
10052;SDS011;52418;53.134;8.236;2022-07-05T03:16:52;1.00;;;1.00;;
10052;SDS011;52418;53.134;8.236;2022-07-05T03:19:18;1.00;;;1.00;;
10052;SDS011;52418;53.134;8.236;2022-07-05T03:21:43;1.10;;;1.10;;
10052;SDS011;52418;53.134;8.236;2022-07-05T03:24:09;0.93;;;0.93;;
10052;SDS011;52418;53.134;8.236;2022-07-05T03:26:34;1.00;;;1.00;;
10052;SDS011;52418;53.134;8.236;2022-07-05T03:28:59;0.97;;;0.97;;
10052;SDS011;52418;53.134;8.236;2022-07-05T03:31:24;0.90;;;0.90;;
10052;SDS011;52418;53.134;8.236;2022-07-05T03:33:49;0.97;;;0.97;;
10052;SDS011;52418;53.134;8.236;2022-07-05T03:36:14;0.90;;;0.90;;
10052;SDS011;52418;53.134;8.236;2022-07-05T03:38:40;0.93;;;0.93;;
10052;SDS011;52418;53.134;8.236;2022-07-05T03:41:05;0.90;;;0.90;;
10052;SDS011;52418;53.134;8.236;2022-07-05T03:43:30;1.00;;;1.00;;
10052;SDS011;52418;53.134;8.236;2022-07-05T03:45:55;0.97;;;0.97;;
10052;SDS011;52418;53.134;8.236;2022-07-05T03:48:21;0.90;;;0.90;;
10052;SDS011;52418;53.134;8.236;2022-07-05T03:50:46;1.00;;;1.00;;
10052;SDS011;52418;53.134;8.236;2022-07-05T03:53:11;1.00;;;1.00;;
10052;SDS011;52418;53.134;8.236;2022-07-05T03:55:36;0.90;;;0.90;;
10052;SDS011;52418;53.134;8.236;2022-07-05T03:58:04;0.97;;;0.97;;
10052;SDS011;52418;53.134;8.236;2022-07-05T04:00:29;1.00;;;1.00;;
10052;SDS011;52418;53.134;8.236;2022-07-05T04:02:54;1.00;;;1.00;;
10052;SDS011;52418;53.134;8.236;2022-07-05T04:05:19;0.90;;;0.90;;
10052;SDS011;52418;53.134;8.236;2022-07-05T04:07:51;1.00;;;1.00;;
10052;SDS011;52418;53.134;8.236;2022-07-05T04:13:01;0.90;;;0.90;;
10052;SDS011;52418;53.134;8.236;2022-07-05T04:15:26;1.00;;;1.00;;
10052;SDS011;52418;53.134;8.236;2022-07-05T04:17:52;1.00;;;1.00;;
10052;SDS011;52418;53.134;8.236;2022-07-05T04:20:34;1.00;;;1.00;;
10052;SDS011;52418;53.134;8.236;2022-07-05T04:22:59;1.00;;;1.00;;
10052;SDS011;52418;53.134;8.236;2022-07-05T04:25:25;1.00;;;1.00;;
10052;SDS011;52418;53.134;8.236;2022-07-05T04:27:51;1.00;;;1.00;;
10052;SDS011;52418;53.134;8.236;2022-07-05T04:30:17;1.00;;;1.00;;
10052;SDS011;52418;53.134;8.236;2022-07-05T04:32:43;1.00;;;1.00;;
10052;SDS011;52418;53.134;8.236;2022-07-05T04:35:09;1.00;;;1.00;;
10052;SDS011;52418;53.134;8.236;2022-07-05T04:37:34;1.10;;;1.10;;
10052;SDS011;52418;53.134;8.236;2022-07-05T04:40:10;1.10;;;1.10;;
10052;SDS011;52418;53.134;8.236;2022-07-05T04:42:37;1.00;;;1.00;;
10052;SDS011;52418;53.134;8.236;2022-07-05T04:45:05;1.00;;;1.00;;
10052;SDS011;52418;53.134;8.236;2022-07-05T04:47:30;1.10;;;1.10;;
10052;SDS011;52418;53.134;8.236;2022-07-05T04:49:56;1.10;;;1.10;;
10052;SDS011;52418;53.134;8.236;2022-07-05T04:52:22;1.00;;;1.00;;
10052;SDS011;52418;53.134;8.236;2022-07-05T04:54:47;1.00;;;1.00;;
10052;SDS011;52418;53.134;8.236;2022-07-05T04:57:12;1.10;;;1.10;;
10052;SDS011;52418;53.134;8.236;2022-07-05T04:59:38;1.10;;;1.10;;
10052;SDS011;52418;53.134;8.236;2022-07-05T05:02:03;1.10;;;1.10;;
10052;SDS011;52418;53.134;8.236;2022-07-05T05:04:28;1.10;;;1.10;;
10052;SDS011;52418;53.134;8.236;2022-07-05T05:06:54;1.10;;;1.10;;
10052;SDS011;52418;53.134;8.236;2022-07-05T05:09:19;1.20;;;1.20;;
10052;SDS011;52418;53.134;8.236;2022-07-05T05:11:45;1.20;;;1.20;;
10052;SDS011;52418;53.134;8.236;2022-07-05T05:14:11;1.10;;;1.10;;
10052;SDS011;52418;53.134;8.236;2022-07-05T05:16:36;1.20;;;1.20;;
10052;SDS011;52418;53.134;8.236;2022-07-05T05:19:01;1.03;;;1.03;;
10052;SDS011;52418;53.134;8.236;2022-07-05T05:21:26;1.20;;;1.20;;
10052;SDS011;52418;53.134;8.236;2022-07-05T05:23:51;1.10;;;1.10;;
10052;SDS011;52418;53.134;8.236;2022-07-05T05:26:17;1.20;;;1.20;;
10052;SDS011;52418;53.134;8.236;2022-07-05T05:28:42;1.20;;;1.20;;
10052;SDS011;52418;53.134;8.236;2022-07-05T05:31:07;1.20;;;1.20;;
10052;SDS011;52418;53.134;8.236;2022-07-05T05:33:32;1.20;;;1.20;;
10052;SDS011;52418;53.134;8.236;2022-07-05T05:35:57;1.47;;;1.37;;
10052;SDS011;52418;53.134;8.236;2022-07-05T05:38:23;1.10;;;1.10;;
10052;SDS011;52418;53.134;8.236;2022-07-05T05:40:48;1.17;;;1.17;;
10052;SDS011;52418;53.134;8.236;2022-07-05T05:43:13;1.03;;;1.03;;
10052;SDS011;52418;53.134;8.236;2022-07-05T05:45:38;1.13;;;1.13;;
10052;SDS011;52418;53.134;8.236;2022-07-05T05:48:04;1.10;;;1.10;;
10052;SDS011;52418;53.134;8.236;2022-07-05T05:50:33;1.10;;;1.10;;
10052;SDS011;52418;53.134;8.236;2022-07-05T05:52:58;1.10;;;1.10;;
10052;SDS011;52418;53.134;8.236;2022-07-05T05:55:24;1.13;;;1.13;;
10052;SDS011;52418;53.134;8.236;2022-07-05T05:57:51;1.10;;;1.10;;
10052;SDS011;52418;53.134;8.236;2022-07-05T06:00:16;1.20;;;1.20;;
10052;SDS011;52418;53.134;8.236;2022-07-05T06:02:42;1.07;;;1.07;;
10052;SDS011;52418;53.134;8.236;2022-07-05T06:05:08;1.20;;;1.20;;
10052;SDS011;52418;53.134;8.236;2022-07-05T06:07:52;1.10;;;1.10;;
10052;SDS011;52418;53.134;8.236;2022-07-05T06:12:42;1.10;;;1.10;;
10052;SDS011;52418;53.134;8.236;2022-07-05T06:15:08;1.10;;;1.10;;
10052;SDS011;52418;53.134;8.236;2022-07-05T06:17:37;1.20;;;1.20;;
10052;SDS011;52418;53.134;8.236;2022-07-05T06:20:09;1.10;;;1.10;;
10052;SDS011;52418;53.134;8.236;2022-07-05T06:22:35;1.00;;;1.00;;
10052;SDS011;52418;53.134;8.236;2022-07-05T06:25:00;1.10;;;1.10;;
10052;SDS011;52418;53.134;8.236;2022-07-05T06:27:25;1.10;;;1.10;;
10052;SDS011;52418;53.134;8.236;2022-07-05T06:29:50;1.10;;;1.10;;
10052;SDS011;52418;53.134;8.236;2022-07-05T06:32:15;1.10;;;1.10;;
10052;SDS011;52418;53.134;8.236;2022-07-05T06:34:41;1.10;;;1.10;;
10052;SDS011;52418;53.134;8.236;2022-07-05T06:37:06;1.00;;;1.00;;
10052;SDS011;52418;53.134;8.236;2022-07-05T06:39:31;1.20;;;1.20;;
10052;SDS011;52418;53.134;8.236;2022-07-05T06:41:57;1.10;;;1.10;;
10052;SDS011;52418;53.134;8.236;2022-07-05T06:44:23;1.00;;;1.00;;
10052;SDS011;52418;53.134;8.236;2022-07-05T06:46:48;1.10;;;1.10;;
10052;SDS011;52418;53.134;8.236;2022-07-05T06:49:13;1.10;;;1.10;;
10052;SDS011;52418;53.134;8.236;2022-07-05T06:51:38;1.10;;;1.10;;
10052;SDS011;52418;53.134;8.236;2022-07-05T06:54:03;1.20;;;1.20;;
10052;SDS011;52418;53.134;8.236;2022-07-05T06:56:29;1.20;;;1.20;;
10052;SDS011;52418;53.134;8.236;2022-07-05T06:58:54;1.10;;;1.10;;
10052;SDS011;52418;53.134;8.236;2022-07-05T07:01:19;1.08;;;1.08;;
10052;SDS011;52418;53.134;8.236;2022-07-05T07:03:44;1.15;;;1.15;;
10052;SDS011;52418;53.134;8.236;2022-07-05T07:06:12;1.02;;;1.02;;
10052;SDS011;52418;53.134;8.236;2022-07-05T07:08:37;1.10;;;1.10;;
10052;SDS011;52418;53.134;8.236;2022-07-05T07:11:21;1.17;;;1.17;;
10052;SDS011;52418;53.134;8.236;2022-07-05T07:13:46;1.20;;;1.20;;
10052;SDS011;52418;53.134;8.236;2022-07-05T07:16:11;1.48;;;1.38;;
10052;SDS011;52418;53.134;8.236;2022-07-05T07:18:36;1.30;;;1.30;;
10052;SDS011;52418;53.134;8.236;2022-07-05T07:21:01;1.30;;;1.30;;
10052;SDS011;52418;53.134;8.236;2022-07-05T07:23:27;1.30;;;1.30;;
10052;SDS011;52418;53.134;8.236;2022-07-05T07:25:52;1.50;;;1.40;;
10052;SDS011;52418;53.134;8.236;2022-07-05T07:28:17;1.20;;;1.20;;
10052;SDS011;52418;53.134;8.236;2022-07-05T07:30:42;1.40;;;1.30;;
10052;SDS011;52418;53.134;8.236;2022-07-05T07:33:07;1.30;;;1.30;;
10052;SDS011;52418;53.134;8.236;2022-07-05T07:35:33;1.50;;;1.40;;
10052;SDS011;52418;53.134;8.236;2022-07-05T07:37:58;1.30;;;1.30;;
10052;SDS011;52418;53.134;8.236;2022-07-05T07:40:23;1.30;;;1.30;;
10052;SDS011;52418;53.134;8.236;2022-07-05T07:42:48;1.30;;;1.30;;
10052;SDS011;52418;53.134;8.236;2022-07-05T07:45:14;1.30;;;1.30;;
10052;SDS011;52418;53.134;8.236;2022-07-05T07:47:39;1.30;;;1.30;;
10052;SDS011;52418;53.134;8.236;2022-07-05T07:50:04;1.30;;;1.30;;
10052;SDS011;52418;53.134;8.236;2022-07-05T07:52:31;1.20;;;1.20;;
10052;SDS011;52418;53.134;8.236;2022-07-05T07:54:58;1.38;;;1.35;;
10052;SDS011;52418;53.134;8.236;2022-07-05T07:57:23;1.30;;;1.30;;
10052;SDS011;52418;53.134;8.236;2022-07-05T07:59:49;1.23;;;1.23;;
10052;SDS011;52418;53.134;8.236;2022-07-05T08:02:14;1.13;;;1.13;;
10052;SDS011;52418;53.134;8.236;2022-07-05T08:04:39;1.40;;;1.40;;
10052;SDS011;52418;53.134;8.236;2022-07-05T08:07:04;1.33;;;1.33;;
10052;SDS011;52418;53.134;8.236;2022-07-05T08:09:30;1.30;;;1.30;;
10052;SDS011;52418;53.134;8.236;2022-07-05T08:11:56;1.30;;;1.30;;
10052;SDS011;52418;53.134;8.236;2022-07-05T08:14:21;1.50;;;1.40;;
10052;SDS011;52418;53.134;8.236;2022-07-05T08:16:47;1.30;;;1.30;;
10052;SDS011;52418;53.134;8.236;2022-07-05T08:19:12;1.50;;;1.40;;
10052;SDS011;52418;53.134;8.236;2022-07-05T08:21:56;1.50;;;1.40;;
10052;SDS011;52418;53.134;8.236;2022-07-05T08:24:21;1.30;;;1.30;;
10052;SDS011;52418;53.134;8.236;2022-07-05T08:26:47;1.30;;;1.30;;
10052;SDS011;52418;53.134;8.236;2022-07-05T08:29:12;1.30;;;1.30;;
10052;SDS011;52418;53.134;8.236;2022-07-05T08:31:42;1.30;;;1.30;;
10052;SDS011;52418;53.134;8.236;2022-07-05T08:34:08;1.30;;;1.30;;
10052;SDS011;52418;53.134;8.236;2022-07-05T08:36:34;1.30;;;1.30;;
10052;SDS011;52418;53.134;8.236;2022-07-05T08:38:59;1.30;;;1.30;;
10052;SDS011;52418;53.134;8.236;2022-07-05T08:41:24;1.30;;;1.30;;
10052;SDS011;52418;53.134;8.236;2022-07-05T08:43:50;1.20;;;1.20;;
10052;SDS011;52418;53.134;8.236;2022-07-05T08:46:17;1.20;;;1.20;;
10052;SDS011;52418;53.134;8.236;2022-07-05T08:48:43;1.20;;;1.20;;
10052;SDS011;52418;53.134;8.236;2022-07-05T08:51:13;1.30;;;1.30;;
10052;SDS011;52418;53.134;8.236;2022-07-05T08:53:39;1.20;;;1.20;;
10052;SDS011;52418;53.134;8.236;2022-07-05T08:56:06;1.30;;;1.30;;
10052;SDS011;52418;53.134;8.236;2022-07-05T08:58:31;1.30;;;1.30;;
10052;SDS011;52418;53.134;8.236;2022-07-05T09:00:57;1.30;;;1.30;;
10052;SDS011;52418;53.134;8.236;2022-07-05T09:03:22;1.20;;;1.20;;
10052;SDS011;52418;53.134;8.236;2022-07-05T09:05:51;1.20;;;1.20;;
10052;SDS011;52418;53.134;8.236;2022-07-05T09:08:19;1.13;;;1.13;;
10052;SDS011;52418;53.134;8.236;2022-07-05T09:10:45;1.20;;;1.20;;
10052;SDS011;52418;53.134;8.236;2022-07-05T09:13:10;1.20;;;1.20;;
10052;SDS011;52418;53.134;8.236;2022-07-05T09:15:38;1.20;;;1.20;;
10052;SDS011;52418;53.134;8.236;2022-07-05T09:18:03;1.17;;;1.17;;
10052;SDS011;52418;53.134;8.236;2022-07-05T09:20:28;1.30;;;1.30;;
10052;SDS011;52418;53.134;8.236;2022-07-05T09:22:54;1.30;;;1.30;;
10052;SDS011;52418;53.134;8.236;2022-07-05T09:25:20;1.20;;;1.20;;
10052;SDS011;52418;53.134;8.236;2022-07-05T09:33:15;1.30;;;1.30;;
10052;SDS011;52418;53.134;8.236;2022-07-05T09:35:41;1.30;;;1.30;;
10052;SDS011;52418;53.134;8.236;2022-07-05T09:38:15;1.50;;;1.40;;
10052;SDS011;52418;53.134;8.236;2022-07-05T09:40:54;1.30;;;1.30;;
10052;SDS011;52418;53.134;8.236;2022-07-05T09:43:21;1.10;;;1.10;;
10052;SDS011;52418;53.134;8.236;2022-07-05T09:45:53;1.10;;;1.10;;
10052;SDS011;52418;53.134;8.236;2022-07-05T09:48:19;1.10;;;1.10;;
10052;SDS011;52418;53.134;8.236;2022-07-05T09:50:44;1.27;;;1.27;;
10052;SDS011;52418;53.134;8.236;2022-07-05T09:53:10;1.30;;;1.30;;
10052;SDS011;52418;53.134;8.236;2022-07-05T09:55:36;1.35;;;1.30;;
10052;SDS011;52418;53.134;8.236;2022-07-05T09:58:01;1.40;;;1.40;;
10052;SDS011;52418;53.134;8.236;2022-07-05T10:00:27;1.50;;;1.40;;
10052;SDS011;52418;53.134;8.236;2022-07-05T10:02:53;1.30;;;1.30;;
10052;SDS011;52418;53.134;8.236;2022-07-05T10:05:19;1.30;;;1.30;;
10052;SDS011;52418;53.134;8.236;2022-07-05T10:07:54;1.33;;;1.33;;
10052;SDS011;52418;53.134;8.236;2022-07-05T10:10:23;1.50;;;1.40;;
10052;SDS011;52418;53.134;8.236;2022-07-05T10:12:50;1.20;;;1.20;;
10052;SDS011;52418;53.134;8.236;2022-07-05T10:15:19;1.30;;;1.30;;
10052;SDS011;52418;53.134;8.236;2022-07-05T10:17:46;1.30;;;1.30;;
10052;SDS011;52418;53.134;8.236;2022-07-05T10:22:56;1.20;;;1.20;;
10052;SDS011;52418;53.134;8.236;2022-07-05T10:25:22;1.30;;;1.30;;
10052;SDS011;52418;53.134;8.236;2022-07-05T10:27:47;1.48;;;1.38;;
10052;SDS011;52418;53.134;8.236;2022-07-05T10:30:13;1.30;;;1.30;;
10052;SDS011;52418;53.134;8.236;2022-07-05T10:32:39;1.30;;;1.30;;
10052;SDS011;52418;53.134;8.236;2022-07-05T10:35:06;1.20;;;1.20;;
10052;SDS011;52418;53.134;8.236;2022-07-05T10:37:32;1.05;;;1.05;;
10052;SDS011;52418;53.134;8.236;2022-07-05T10:39:58;1.30;;;1.30;;
10052;SDS011;52418;53.134;8.236;2022-07-05T10:42:24;1.10;;;1.10;;
10052;SDS011;52418;53.134;8.236;2022-07-05T10:44:50;1.20;;;1.20;;
10052;SDS011;52418;53.134;8.236;2022-07-05T10:47:15;1.25;;;1.25;;
10052;SDS011;52418;53.134;8.236;2022-07-05T10:49:42;1.33;;;1.30;;
10052;SDS011;52418;53.134;8.236;2022-07-05T10:52:23;1.50;;;1.40;;
10052;SDS011;52418;53.134;8.236;2022-07-05T10:57:33;1.20;;;1.20;;
10052;SDS011;52418;53.134;8.236;2022-07-05T11:00:16;1.30;;;1.30;;
10052;SDS011;52418;53.134;8.236;2022-07-05T11:02:42;1.30;;;1.30;;
10052;SDS011;52418;53.134;8.236;2022-07-05T11:05:07;1.30;;;1.30;;
10052;SDS011;52418;53.134;8.236;2022-07-05T11:10:16;1.30;;;1.30;;
10052;SDS011;52418;53.134;8.236;2022-07-05T11:12:41;1.20;;;1.20;;
10052;SDS011;52418;53.134;8.236;2022-07-05T11:15:07;1.35;;;1.30;;
10052;SDS011;52418;53.134;8.236;2022-07-05T11:17:34;1.30;;;1.30;;
10052;SDS011;52418;53.134;8.236;2022-07-05T11:22:34;1.30;;;1.30;;
10052;SDS011;52418;53.134;8.236;2022-07-05T11:25:00;1.30;;;1.30;;
10052;SDS011;52418;53.134;8.236;2022-07-05T11:27:26;1.38;;;1.33;;
10052;SDS011;52418;53.134;8.236;2022-07-05T11:29:52;1.35;;;1.35;;
10052;SDS011;52418;53.134;8.236;2022-07-05T11:32:18;1.50;;;1.40;;
10052;SDS011;52418;53.134;8.236;2022-07-05T11:34:44;1.30;;;1.30;;
10052;SDS011;52418;53.134;8.236;2022-07-05T11:39:46;1.20;;;1.20;;
10052;SDS011;52418;53.134;8.236;2022-07-05T11:42:21;1.30;;;1.30;;
10052;SDS011;52418;53.134;8.236;2022-07-05T11:44:49;1.35;;;1.30;;
10052;SDS011;52418;53.134;8.236;2022-07-05T11:47:15;1.35;;;1.33;;
10052;SDS011;52418;53.134;8.236;2022-07-05T11:49:41;1.30;;;1.30;;
10052;SDS011;52418;53.134;8.236;2022-07-05T11:52:06;1.50;;;1.40;;
10052;SDS011;52418;53.134;8.236;2022-07-05T11:54:32;1.50;;;1.40;;
10052;SDS011;52418;53.134;8.236;2022-07-05T11:56:58;1.25;;;1.25;;
10052;SDS011;52418;53.134;8.236;2022-07-05T11:59:24;1.30;;;1.30;;
10052;SDS011;52418;53.134;8.236;2022-07-05T12:01:50;1.27;;;1.27;;
10052;SDS011;52418;53.134;8.236;2022-07-05T12:04:26;1.30;;;1.30;;
10052;SDS011;52418;53.134;8.236;2022-07-05T12:06:51;1.30;;;1.30;;
10052;SDS011;52418;53.134;8.236;2022-07-05T12:09:24;1.30;;;1.30;;
10052;SDS011;52418;53.134;8.236;2022-07-05T12:11:50;1.30;;;1.30;;
10052;SDS011;52418;53.134;8.236;2022-07-05T12:14:34;1.10;;;1.10;;
10052;SDS011;52418;53.134;8.236;2022-07-05T12:17:15;1.20;;;1.20;;
10052;SDS011;52418;53.134;8.236;2022-07-05T12:19:41;1.20;;;1.20;;
10052;SDS011;52418;53.134;8.236;2022-07-05T12:22:06;1.30;;;1.30;;
10052;SDS011;52418;53.134;8.236;2022-07-05T12:24:31;1.27;;;1.27;;
10052;SDS011;52418;53.134;8.236;2022-07-05T12:26:56;1.40;;;1.30;;
10052;SDS011;52418;53.134;8.236;2022-07-05T12:29:21;1.30;;;1.30;;
10052;SDS011;52418;53.134;8.236;2022-07-05T12:32:03;1.13;;;1.13;;
10052;SDS011;52418;53.134;8.236;2022-07-05T12:34:29;1.20;;;1.20;;
10052;SDS011;52418;53.134;8.236;2022-07-05T12:36:55;1.30;;;1.30;;
10052;SDS011;52418;53.134;8.236;2022-07-05T12:39:20;1.27;;;1.27;;
10052;SDS011;52418;53.134;8.236;2022-07-05T12:41:45;1.30;;;1.30;;
10052;SDS011;52418;53.134;8.236;2022-07-05T12:44:11;1.30;;;1.30;;
10052;SDS011;52418;53.134;8.236;2022-07-05T12:46:36;1.20;;;1.20;;
10052;SDS011;52418;53.134;8.236;2022-07-05T12:49:02;1.20;;;1.20;;
10052;SDS011;52418;53.134;8.236;2022-07-05T12:51:35;1.20;;;1.20;;
10052;SDS011;52418;53.134;8.236;2022-07-05T12:54:00;1.30;;;1.30;;
10052;SDS011;52418;53.134;8.236;2022-07-05T12:56:48;1.20;;;1.20;;
10052;SDS011;52418;53.134;8.236;2022-07-05T12:59:32;1.30;;;1.30;;
10052;SDS011;52418;53.134;8.236;2022-07-05T13:01:57;1.20;;;1.20;;
10052;SDS011;52418;53.134;8.236;2022-07-05T13:04:23;1.25;;;1.25;;
10052;SDS011;52418;53.134;8.236;2022-07-05T13:06:49;1.48;;;1.40;;
10052;SDS011;52418;53.134;8.236;2022-07-05T13:09:31;1.20;;;1.20;;
10052;SDS011;52418;53.134;8.236;2022-07-05T13:12:07;1.20;;;1.20;;
10052;SDS011;52418;53.134;8.236;2022-07-05T13:14:33;1.30;;;1.30;;
10052;SDS011;52418;53.134;8.236;2022-07-05T13:16:58;1.20;;;1.20;;
10052;SDS011;52418;53.134;8.236;2022-07-05T13:19:24;1.20;;;1.20;;
10052;SDS011;52418;53.134;8.236;2022-07-05T13:21:49;1.30;;;1.30;;
10052;SDS011;52418;53.134;8.236;2022-07-05T13:24:14;1.30;;;1.30;;
10052;SDS011;52418;53.134;8.236;2022-07-05T13:26:39;1.37;;;1.37;;
10052;SDS011;52418;53.134;8.236;2022-07-05T13:29:05;1.20;;;1.20;;
10052;SDS011;52418;53.134;8.236;2022-07-05T13:31:30;1.30;;;1.30;;
10052;SDS011;52418;53.134;8.236;2022-07-05T13:33:55;1.20;;;1.20;;
10052;SDS011;52418;53.134;8.236;2022-07-05T13:36:21;1.20;;;1.20;;
10052;SDS011;52418;53.134;8.236;2022-07-05T13:38:46;1.30;;;1.30;;
10052;SDS011;52418;53.134;8.236;2022-07-05T13:41:12;1.20;;;1.20;;
10052;SDS011;52418;53.134;8.236;2022-07-05T13:43:37;1.20;;;1.20;;
10052;SDS011;52418;53.134;8.236;2022-07-05T13:46:03;1.20;;;1.20;;
10052;SDS011;52418;53.134;8.236;2022-07-05T13:48:28;1.30;;;1.30;;
10052;SDS011;52418;53.134;8.236;2022-07-05T13:50:54;1.30;;;1.30;;
10052;SDS011;52418;53.134;8.236;2022-07-05T13:53:19;1.30;;;1.30;;
10052;SDS011;52418;53.134;8.236;2022-07-05T13:55:45;1.20;;;1.20;;
10052;SDS011;52418;53.134;8.236;2022-07-05T13:58:10;1.10;;;1.10;;
10052;SDS011;52418;53.134;8.236;2022-07-05T14:00:37;1.20;;;1.20;;
10052;SDS011;52418;53.134;8.236;2022-07-05T14:03:02;1.30;;;1.30;;
10052;SDS011;52418;53.134;8.236;2022-07-05T14:05:27;1.30;;;1.30;;
10052;SDS011;52418;53.134;8.236;2022-07-05T14:07:52;1.30;;;1.30;;
10052;SDS011;52418;53.134;8.236;2022-07-05T14:10:17;1.20;;;1.20;;
10052;SDS011;52418;53.134;8.236;2022-07-05T14:12:43;1.30;;;1.30;;
10052;SDS011;52418;53.134;8.236;2022-07-05T14:15:08;1.30;;;1.30;;
10052;SDS011;52418;53.134;8.236;2022-07-05T14:17:33;1.20;;;1.20;;
10052;SDS011;52418;53.134;8.236;2022-07-05T14:19:59;1.30;;;1.30;;
10052;SDS011;52418;53.134;8.236;2022-07-05T14:22:24;1.30;;;1.30;;
10052;SDS011;52418;53.134;8.236;2022-07-05T14:24:49;1.40;;;1.30;;
10052;SDS011;52418;53.134;8.236;2022-07-05T14:27:14;1.50;;;1.40;;
10052;SDS011;52418;53.134;8.236;2022-07-05T14:29:40;1.30;;;1.30;;
10052;SDS011;52418;53.134;8.236;2022-07-05T14:32:05;1.20;;;1.20;;
10052;SDS011;52418;53.134;8.236;2022-07-05T14:34:30;1.10;;;1.10;;
10052;SDS011;52418;53.134;8.236;2022-07-05T14:36:55;1.20;;;1.20;;
10052;SDS011;52418;53.134;8.236;2022-07-05T14:39:21;1.10;;;1.10;;
10052;SDS011;52418;53.134;8.236;2022-07-05T14:41:46;1.30;;;1.30;;
10052;SDS011;52418;53.134;8.236;2022-07-05T14:44:11;1.20;;;1.20;;
10052;SDS011;52418;53.134;8.236;2022-07-05T14:46:38;1.30;;;1.30;;
10052;SDS011;52418;53.134;8.236;2022-07-05T14:49:03;1.25;;;1.25;;
10052;SDS011;52418;53.134;8.236;2022-07-05T14:51:28;1.50;;;1.40;;
10052;SDS011;52418;53.134;8.236;2022-07-05T14:53:53;1.30;;;1.30;;
10052;SDS011;52418;53.134;8.236;2022-07-05T14:56:18;1.30;;;1.30;;
10052;SDS011;52418;53.134;8.236;2022-07-05T14:58:44;1.30;;;1.30;;
10052;SDS011;52418;53.134;8.236;2022-07-05T15:01:09;1.42;;;1.40;;
10052;SDS011;52418;53.134;8.236;2022-07-05T15:03:34;1.30;;;1.30;;
10052;SDS011;52418;53.134;8.236;2022-07-05T15:06:00;1.20;;;1.20;;
10052;SDS011;52418;53.134;8.236;2022-07-05T15:08:28;1.20;;;1.20;;
10052;SDS011;52418;53.134;8.236;2022-07-05T15:10:53;1.30;;;1.30;;
10052;SDS011;52418;53.134;8.236;2022-07-05T15:13:18;1.30;;;1.30;;